• Join FlightAware (Why Join?)
  • Login
  • US Flag 
08:44PM EDT


 

Airport Tracker/Info


-or-


 

Live Flight TrackerFlight Track Log ✈ SWA127 ✈ 09-Apr-2013 ✈ KPIT - KMCO

Flight Track Log - Related Links

Times and Time Zones

All times are in EDT time to prevent confusion due to time zone crossing. See the SWA127 flight status page for this flight to view local times or setup timezone preferences in your user account.

Time Position Orientation Groundspeed Altitude Reporting Facility
EDT Latitude Longitude Course Direction KTS MPH feet Rate Location/Type
06:38AM 40.4442 -80.3239 180° South 256 295 5,500  Level Cleveland Center
06:39AM 40.3711 -80.3189 177° South 283 326 8,800 2,700 Climbing Cleveland Center
06:40AM 40.2858 -80.3164 179° South 298 343 11,000 2,640 Climbing Cleveland Center
06:41AM 40.1897 -80.3114 178° South 350 403 14,100 2,820 Climbing Cleveland Center
06:42AM 40.0919 -80.3064 178° South 356 410 16,700 2,280 Climbing Cleveland Center
06:43AM 39.6829 -80.2500 180° South  Level FlightAware Approximate
06:44AM 39.8947 -80.2972 178° South 364 419 21,000  Level Washington Center
06:45AM 39.7825 -80.2928 178° South 392 451 23,200 1,980 Climbing Washington Center
06:46AM 39.6681 -80.2878 178° South 408 470 25,000 1,800 Climbing Washington Center
06:47AM 39.5514 -80.2831 178° South 420 483 26,900 1,500 Climbing Washington Center
06:48AM 39.4286 -80.2775 178° South 431 496 28,100 1,380 Climbing Washington Center
06:49AM 39.3039 -80.2697 177° South 442 509 29,700 900 Climbing Washington Center
06:50AM 39.1803 -80.2858 186° South 442 509 30,000 1,260 Climbing Washington Center
06:51AM 39.0622 -80.3236 194° South 448 516 32,300 2,220 Climbing Washington Center
06:52AM 38.9503 -80.3592 194° South 430 495 34,500 1,320 Climbing Washington Center
06:53AM 38.8406 -80.3892 192° South 418 481 35,000 720 Climbing Washington Center
06:54AM 38.7158 -80.4344 196° South 426 490 36,000 480 Climbing Washington Center
06:55AM 38.6125 -80.4622 192° South 426 490 36,000  Level Washington Center
06:56AM 38.4983 -80.4969 193° South 420 483 36,000  Level Washington Center
06:57AM 38.3867 -80.5294 193° South 420 483 36,000  Level Washington Center
06:58AM 38.2606 -80.5500 187° South 420 483 36,000  Level Washington Center
06:59AM 38.1431 -80.5661 186° South 420 483 36,000  Level Washington Center
07:00AM 38.0256 -80.5847 187° South 425 489 36,000  Level Washington Center
07:01AM 37.9100 -80.6033 187° South 425 489 36,000  Level Washington Center
07:02AM 37.8053 -80.6172 186° South 425 489 36,000  Level Washington Center
07:03AM 37.5958 -80.6450 186° South 446 513 36,000  Level Atlanta Center
07:04AM 37.4775 -80.6606 186° South 440 506 36,000  Level Atlanta Center
07:05AM 37.3467 -80.6792 186° South 435 501 36,000  Level Atlanta Center
07:06AM 37.2306 -80.6972 187° South 435 501 36,000  Level Atlanta Center
07:07AM 37.1119 -80.7100 185° South 430 495 36,000  Level Atlanta Center
07:08AM 37.0061 -80.7247 186° South 430 495 36,000  Level Atlanta Center
07:09AM 36.8856 -80.7378 185° South 430 495 36,000  Level Atlanta Center
07:10AM 36.7692 -80.7478 184° South 430 495 36,000  Level Atlanta Center
07:11AM 36.6506 -80.7603 185° South 424 488 36,000  Level Atlanta Center
07:12AM 36.5319 -80.7706 184° South 429 494 36,000  Level Atlanta Center
07:13AM 36.4156 -80.7856 186° South 429 494 36,000  Level Atlanta Center
07:14AM 36.2950 -80.8006 186° South 429 494 36,000  Level Atlanta Center
07:15AM 36.1764 -80.8131 185° South 429 494 36,000  Level Atlanta Center
07:16AM 36.0433 -80.8236 184° South 435 501 36,000  Level Atlanta Center
07:17AM 35.9247 -80.8361 185° South 441 507 36,000  Level Atlanta Center
07:18AM 35.8042 -80.8511 186° South 439 505 36,000  Level Atlanta Center
07:19AM 35.6814 -80.8633 185° South 439 505 36,000  Level Atlanta Center
07:20AM 35.5606 -80.8758 185° South 439 505 36,000  Level Atlanta Center
07:21AM 35.4525 -80.8875 185° South 439 505 36,000  Level Atlanta Center
07:22AM 35.3297 -80.9025 186° South 439 505 36,000  Level Atlanta Center
07:25AM 35.0667 -80.9322 185° South 455 524 36,000  Level Jacksonville Center
07:26AM 34.9333 -80.9428 184° South 455 524 36,000  Level Jacksonville Center
07:27AM 34.8125 -80.9608 187° South 450 518 36,000  Level Jacksonville Center
07:28AM 34.6917 -80.9636 181° South 439 505 36,000  Level Jacksonville Center
07:29AM 34.5689 -80.9839 188° South 439 505 36,000  Level Jacksonville Center
07:30AM 34.4481 -80.9992 186° South 437 503 36,000  Level Jacksonville Center
07:31AM 34.3272 -81.0092 184° South 442 509 36,000  Level Jacksonville Center
07:32AM 34.2231 -81.0192 185° South 432 497 36,000  Level Jacksonville Center
07:33AM 34.1042 -81.0267 183° South 432 497 36,000  Level Jacksonville Center
07:34AM 33.9856 -81.0417 186° South 426 490 36,000  Level Jacksonville Center
07:35AM 33.8625 -81.0442 181° South 431 496 36,000  Level Jacksonville Center
07:36AM 33.7394 -81.0494 182° South 442 509 36,000  Level Jacksonville Center
07:37AM 33.6164 -81.0469 179° South 442 509 36,000  Level Jacksonville Center
07:38AM 33.4933 -81.0519 182° South 442 509 36,000  Level Jacksonville Center
07:39AM 33.3700 -81.0519 180° South 442 509 36,000  Level Jacksonville Center
07:40AM 33.2469 -81.0569 182° South 442 509 36,000  Level Jacksonville Center
07:41AM 33.1261 -81.0572 180° South 442 509 36,000  Level Jacksonville Center
07:42AM 33.0031 -81.0622 182° South 442 509 36,000  Level Jacksonville Center
07:43AM 32.8797 -81.0622 180° South 442 509 36,000  Level Jacksonville Center
07:44AM 32.7567 -81.0622 180° South 442 509 36,000  Level Jacksonville Center
07:45AM 32.6336 -81.0647 181° South 442 509 36,000  Level Jacksonville Center
07:46AM 32.4978 -81.0675 181° South 442 509 36,000  Level Jacksonville Center
07:47AM 32.3831 -81.0672 180° South 448 516 36,000  Level Jacksonville Center
07:48AM 32.2600 -81.0722 182° South 448 516 36,000  Level Jacksonville Center
07:49AM 32.1367 -81.0722 180° South 448 516 36,000  Level Jacksonville Center
07:50AM 32.0136 -81.0769 182° South 448 516 36,000  Level Jacksonville Center
07:51AM 31.8822 -81.0747 179° South 436 502 36,000  Level Jacksonville Center
07:52AM 31.7631 -81.0769 181° South 434 499 36,000  Level Jacksonville Center
07:53AM 31.6525 -81.0792 181° South 439 505 36,000  Level Jacksonville Center
07:54AM 31.5231 -81.0794 180° South 433 498 36,000  Level Jacksonville Center
07:55AM 31.4000 -81.0817 181° South 438 504 36,000  Level Jacksonville Center
07:56AM 31.2808 -81.0864 182° South 438 504 36,000  Level Jacksonville Center
07:57AM 31.1597 -81.0839 179° South 438 504 36,000  Level Jacksonville Center
07:58AM 31.0408 -81.0886 182° South 438 504 36,000  Level Jacksonville Center
07:59AM 30.9197 -81.0908 181° South 438 504 36,000 -420 Level Jacksonville Center
08:00AM 30.7967 -81.0933 181° South 438 504 35,200 -900 Descending Jacksonville Center
08:01AM 30.6714 -81.0933 180° South 443 510 34,300 -600 Descending Jacksonville Center
08:02AM 30.5483 -81.0956 181° South 443 510 34,000 -180 Descending Jacksonville Center
08:03AM 30.4231 -81.0978 181° South 443 510 34,000  Level Jacksonville Center
08:04AM 30.2978 -81.1003 181° South 443 510 34,000  Level Jacksonville Center
08:05AM 30.1767 -81.1025 181° South 443 510 34,000  Level Jacksonville Center
08:06AM 30.0514 -81.1047 181° South 443 510 34,000 -1,260 Level Jacksonville Center
08:07AM 29.9303 -81.1047 180° South 443 510 31,500 -2,820 Descending Jacksonville Center
08:08AM 29.8094 -81.1069 181° South 438 504 28,400 -2,820 Descending Jacksonville Center
08:09AM 29.6925 -81.1114 182° South 433 498 25,900 -2,520 Descending Jacksonville Center
08:10AM 29.5756 -81.1136 181° South 427 491 23,400 -2,400 Descending Jacksonville Center
08:11AM 29.4711 -81.1131 180° South 406 467 21,100 -2,280 Descending Jacksonville Center
08:12AM 29.3669 -81.1125 180° South 393 452 18,900 -2,160 Descending Jacksonville Center
08:13AM 29.2644 -81.1119 180° South 373 429 16,800 -2,220 Descending Jacksonville Center
08:14AM 29.1664 -81.1019 175° South 363 418 14,500 -2,280 Descending Jacksonville Center
08:15AM 29.0703 -81.0967 177° South 363 418 12,300 -1,260 Descending Jacksonville Center
08:16AM 28.9739 -81.0817 172° South 352 405 12,000 -780 Descending Jacksonville Center
08:17AM 28.8925 -81.0689 172° South 332 382 10,800 -1,380 Descending Jacksonville Center
08:17AM 28.8500 -81.0667 177° South 299 344 10,100 -1,560 Descending Orlando TRACON
08:18AM 28.7667 -81.0667 180° South 291 335 8,500 -1,140 Descending Orlando TRACON
08:19AM 28.7500 -81.1333 254° West 251 289 7,900 -960 Descending Orlando TRACON
08:20AM 28.7167 -81.2167 245° Southwest 249 287 6,700 -1,320 Descending Orlando TRACON
08:21AM 28.6833 -81.2667 233° Southwest 228 262 5,200 -1,260 Descending Orlando TRACON
08:22AM 28.6167 -81.2833 192° South 221 254 4,100 -1,080 Descending Orlando TRACON
08:23AM 28.5667 -81.3000 196° South 197 227 3,200 -1,020 Descending Orlando TRACON
08:24AM 28.5167 -81.3000 180° South 138 159 2,100 -1,080 Descending Orlando TRACON
08:25AM 28.4833 -81.3000 180° South 133 153 900 -1,140 Descending Orlando TRACON
08:27AM 28.4294 -81.3090 186° South  Level Estimated
08:34AM 28.4294 -81.3090 186° South  Level Estimated
08:35AM 28.4294 -81.3090 186° South  Level Estimated
08:36AM 28.4294 -81.3090 186° South  Level Estimated
08:37AM 28.4294 -81.3090 186° South  Level Estimated